createdAt,value
2023-01-21T00:01:37.354Z,100360.22
2023-01-21T00:04:05.006Z,100365.41
2023-01-21T00:06:32.619Z,100364.22
2023-01-21T00:09:02.429Z,100368.13
2023-01-21T00:11:30.159Z,100365.19
2023-01-21T00:14:01.331Z,100366.63
2023-01-21T00:16:28.861Z,100366.31
2023-01-21T00:18:56.942Z,100372.06
2023-01-21T00:21:24.569Z,100370.19
2023-01-21T00:23:52.175Z,100369.78
2023-01-21T00:26:19.820Z,100373.75
2023-01-21T00:28:48.415Z,100371.13
2023-01-21T00:31:17.514Z,100375.97
2023-01-21T00:33:45.409Z,100381.66
2023-01-21T00:36:18.259Z,100377.91
2023-01-21T00:38:49.150Z,100380.22
2023-01-21T00:41:17.225Z,100385.94
2023-01-21T00:43:45.114Z,100388.63
2023-01-21T00:46:12.897Z,100376.59
2023-01-21T00:48:41.849Z,100388.38
2023-01-21T00:51:09.965Z,100383.78
2023-01-21T00:53:41.678Z,100383.69
2023-01-21T00:56:11.654Z,100388.44
2023-01-21T00:58:39.716Z,100388.88
2023-01-21T01:01:09.925Z,100390.88
2023-01-21T01:03:39.221Z,100399.94
2023-01-21T01:06:10.344Z,100398.19
2023-01-21T01:08:37.934Z,100397.94
2023-01-21T01:11:06.061Z,100404.78
2023-01-21T01:13:34.636Z,100406.34
2023-01-21T01:16:02.664Z,100410.97
2023-01-21T01:18:32.459Z,100421.09
2023-01-21T01:21:00.548Z,100427.16
2023-01-21T01:23:30.113Z,100429.69
2023-01-21T01:25:59.517Z,100424.38
2023-01-21T01:28:27.627Z,100429.69
2023-01-21T01:30:55.721Z,100437.84
2023-01-21T01:33:23.892Z,100437.84
2023-01-21T01:35:51.830Z,100439.38
2023-01-21T01:38:21.947Z,100439.59
2023-01-21T01:40:53.636Z,100444.34
2023-01-21T01:43:24.545Z,100453.81
2023-01-21T01:45:52.695Z,100449.53
2023-01-21T01:48:24.875Z,100450.31
2023-01-21T01:50:52.786Z,100464.72
2023-01-21T01:53:20.765Z,100456.88
2023-01-21T01:55:51.098Z,100461.19
2023-01-21T01:58:21.825Z,100461.75
2023-01-21T02:00:49.736Z,100464.06
2023-01-21T02:03:36.196Z,100464.72
2023-01-21T02:06:04.343Z,100462.31
2023-01-21T02:08:34.362Z,100463.63
2023-01-21T02:11:03.365Z,100464.94
2023-01-21T02:13:33.164Z,100465.38
2023-01-21T02:16:14.470Z,100471.66
2023-01-21T02:18:50.475Z,100477.69
2023-01-21T02:21:53.453Z,100474.03
2023-01-21T02:25:00.616Z,100470.63
2023-01-21T02:27:42.865Z,100471.31
2023-01-21T02:30:42.372Z,100470.44
2023-01-21T02:33:32.866Z,100471.41
2023-01-21T02:36:13.424Z,100470.19
2023-01-21T02:38:47.651Z,100479.09
2023-01-21T02:41:24.163Z,100480.66
2023-01-21T02:43:58.221Z,100486.44
2023-01-21T02:46:32.376Z,100478.66
2023-01-21T02:49:05.644Z,100489.06
2023-01-21T02:51:33.386Z,100495.16
2023-01-21T02:54:00.919Z,100496.22
2023-01-21T02:56:28.728Z,100492.34
2023-01-21T02:59:00.542Z,100496.94
2023-01-21T03:01:49.345Z,100500.13
2023-01-21T03:04:45.695Z,100507.50
2023-01-21T03:07:20.336Z,100503.72
2023-01-21T03:09:47.891Z,100512.31
2023-01-21T03:12:31.813Z,100498.44
2023-01-21T03:15:22.828Z,100494.81
2023-01-21T03:17:58.492Z,100508.25
2023-01-21T03:20:31.575Z,100505.72
2023-01-21T03:23:03.820Z,100508.81
2023-01-21T03:25:34.203Z,100510.09
2023-01-21T03:28:05.877Z,100508.19
2023-01-21T03:30:36.198Z,100506.84
2023-01-21T03:33:05.094Z,100518.72
2023-01-21T03:35:38.563Z,100523.78
2023-01-21T03:38:12.869Z,100527.72
2023-01-21T03:40:44.252Z,100531.00
2023-01-21T03:43:11.998Z,100526.19
2023-01-21T03:45:47.328Z,100533.78
2023-01-21T03:48:20.054Z,100539.88
2023-01-21T03:50:56.275Z,100545.44
2023-01-21T03:53:24.206Z,100546.00
2023-01-21T03:55:52.681Z,100539.91
2023-01-21T03:58:20.432Z,100544.75
2023-01-21T04:00:49.154Z,100552.97
2023-01-21T04:03:16.738Z,100556.16
2023-01-21T04:05:44.466Z,100551.56
2023-01-21T04:08:13.421Z,100563.69
2023-01-21T04:10:40.982Z,100557.56
2023-01-21T04:13:08.598Z,100566.66
2023-01-21T04:15:36.171Z,100572.50
2023-01-21T04:18:03.748Z,100572.91
2023-01-21T04:20:31.312Z,100576.34
2023-01-21T04:22:58.951Z,100573.38
2023-01-21T04:25:28.082Z,100577.88
2023-01-21T04:27:55.691Z,100581.13
2023-01-21T04:30:23.260Z,100584.22
2023-01-21T04:32:50.822Z,100589.03
2023-01-21T04:35:18.372Z,100585.72
2023-01-21T04:37:45.959Z,100580.44
2023-01-21T04:40:13.814Z,100579.78
2023-01-21T04:42:57.751Z,100593.09
2023-01-21T04:45:25.332Z,100586.25
2023-01-21T04:47:52.857Z,100593.63
2023-01-21T04:50:20.590Z,100591.88
2023-01-21T04:52:48.143Z,100600.44
2023-01-21T04:55:15.919Z,100597.66
2023-01-21T04:57:44.827Z,100608.31
2023-01-21T05:00:13.342Z,100614.25
2023-01-21T05:02:40.932Z,100612.25
2023-01-21T05:05:09.197Z,100608.47
2023-01-21T05:07:36.830Z,100609.13
2023-01-21T05:10:05.186Z,100614.69
2023-01-21T05:12:32.753Z,100625.84
2023-01-21T05:15:01.602Z,100623.09
2023-01-21T05:17:29.148Z,100623.22
2023-01-21T05:19:56.642Z,100623.44
2023-01-21T05:22:24.164Z,100618.25
2023-01-21T05:24:51.707Z,100623.69
2023-01-21T05:27:19.883Z,100623.47
2023-01-21T05:29:47.454Z,100627.13
2023-01-21T05:32:16.389Z,100635.25
2023-01-21T05:34:43.920Z,100635.88
2023-01-21T05:37:11.671Z,100638.91
2023-01-21T05:39:39.365Z,100642.59
2023-01-21T05:42:06.995Z,100647.41
2023-01-21T05:44:34.608Z,100652.72
2023-01-21T05:47:02.144Z,100652.72
2023-01-21T05:49:31.051Z,100657.28
2023-01-21T05:51:58.591Z,100667.25
2023-01-21T05:54:26.154Z,100665.84
2023-01-21T05:56:53.882Z,100666.34
2023-01-21T05:59:21.454Z,100676.19
2023-01-21T06:01:48.971Z,100667.97
2023-01-21T06:04:16.511Z,100679.34
2023-01-21T06:06:45.462Z,100679.09
2023-01-21T06:09:12.983Z,100683.47
2023-01-21T06:11:42.028Z,100682.06
2023-01-21T06:14:09.726Z,100691.78
2023-01-21T06:16:37.301Z,100705.53
2023-01-21T06:19:04.876Z,100709.41
2023-01-21T06:21:32.474Z,100710.66
2023-01-21T06:24:02.463Z,100716.59
2023-01-21T06:26:33.997Z,100713.25
2023-01-21T06:29:01.904Z,100718.81
2023-01-21T06:31:29.533Z,100713.50
2023-01-21T06:33:57.317Z,100727.84
2023-01-21T06:36:24.830Z,100730.25
2023-01-21T06:38:52.471Z,100735.88
2023-01-21T06:41:21.418Z,100732.38
2023-01-21T06:43:48.920Z,100734.13
2023-01-21T06:46:16.621Z,100749.53
2023-01-21T06:48:44.213Z,100751.81
2023-01-21T06:51:11.845Z,100752.19
2023-01-21T06:53:39.443Z,100756.34
2023-01-21T06:56:07.504Z,100753.88
2023-01-21T06:58:36.471Z,100753.00
2023-01-21T07:01:04.112Z,100772.28
2023-01-21T07:03:31.749Z,100768.53
2023-01-21T07:05:59.306Z,100771.81
2023-01-21T07:08:26.943Z,100772.84
2023-01-21T07:10:54.516Z,100774.91
2023-01-21T07:13:22.069Z,100778.31
2023-01-21T07:15:51.033Z,100778.31
2023-01-21T07:18:18.577Z,100785.72
2023-01-21T07:20:46.152Z,100784.47
2023-01-21T07:23:13.714Z,100791.53
2023-01-21T07:25:41.241Z,100797.72
2023-01-21T07:28:08.828Z,100789.41
2023-01-21T07:30:37.447Z,100796.72
2023-01-21T07:33:07.715Z,100803.16
2023-01-21T07:35:35.541Z,100806.34
2023-01-21T07:38:03.246Z,100808.88
2023-01-21T07:40:30.776Z,100815.06
2023-01-21T07:42:58.431Z,100814.44
2023-01-21T07:45:26.263Z,100815.44
2023-01-21T07:47:53.816Z,100812.41
2023-01-21T07:50:22.765Z,100825.81
2023-01-21T07:55:33.084Z,100823.16
2023-01-21T07:58:00.799Z,100820.50
2023-01-21T08:00:29.161Z,100825.03
2023-01-21T08:02:57.328Z,100820.50
2023-01-21T08:05:27.100Z,100814.94
2023-01-21T08:07:58.358Z,100829.63
2023-01-21T08:10:26.823Z,100821.91
2023-01-21T08:12:54.457Z,100825.06
2023-01-21T08:15:22.016Z,100822.81
2023-01-21T08:17:50.492Z,100832.38
2023-01-21T08:20:18.251Z,100831.63
2023-01-21T08:22:47.178Z,100834.28
2023-01-21T08:25:15.001Z,100835.19
2023-01-21T08:27:42.685Z,100839.09
2023-01-21T08:30:11.492Z,100845.28
2023-01-21T08:32:39.231Z,100848.59
2023-01-21T08:35:08.189Z,100854.53
2023-01-21T08:37:35.760Z,100851.63
2023-01-21T08:40:05.074Z,100851.13
2023-01-21T08:42:32.734Z,100851.63
2023-01-21T08:45:00.349Z,100853.63
2023-01-21T08:47:28.005Z,100855.91
2023-01-21T08:49:55.631Z,100865.91
2023-01-21T08:52:23.381Z,100872.06
2023-01-21T08:54:50.983Z,100874.84
2023-01-21T08:57:19.986Z,100871.06
2023-01-21T08:59:47.649Z,100871.44
2023-01-21T09:02:15.249Z,100874.81
2023-01-21T09:04:42.922Z,100873.78
2023-01-21T09:07:10.564Z,100875.00
2023-01-21T09:09:38.137Z,100873.00
2023-01-21T09:12:06.878Z,100877.00
2023-01-21T09:14:35.767Z,100878.28
2023-01-21T09:17:03.334Z,100878.38
2023-01-21T09:19:30.940Z,100875.72
2023-01-21T09:21:58.556Z,100881.56
2023-01-21T09:24:26.366Z,100884.56
2023-01-21T09:26:53.948Z,100883.28
2023-01-21T09:29:21.598Z,100883.03
2023-01-21T09:31:50.541Z,100886.81
2023-01-21T09:34:18.144Z,100889.59
2023-01-21T09:36:45.705Z,100891.09
2023-01-21T09:39:13.253Z,100894.16
2023-01-21T09:41:44.276Z,100891.72
2023-01-21T09:44:20.317Z,100905.03
2023-01-21T09:46:53.868Z,100899.22
2023-01-21T09:49:25.407Z,100902.34
2023-01-21T09:52:00.327Z,100900.59
2023-01-21T09:54:30.278Z,100895.09
2023-01-21T09:57:30.859Z,100888.69
2023-01-21T10:00:08.942Z,100894.38
2023-01-21T10:02:50.044Z,100897.75
2023-01-21T10:05:40.996Z,100901.53
2023-01-21T10:08:17.478Z,100899.97
2023-01-21T10:10:50.295Z,100899.97
2023-01-21T10:13:42.118Z,100898.38
2023-01-21T10:16:16.125Z,100904.38
2023-01-21T10:18:48.264Z,100911.16
2023-01-21T10:21:22.151Z,100910.09
2023-01-21T10:23:53.259Z,100906.97
2023-01-21T10:26:20.945Z,100899.66
2023-01-21T10:28:51.592Z,100905.16
2023-01-21T10:31:22.951Z,100893.28
2023-01-21T10:33:52.517Z,100895.00
2023-01-21T10:36:51.503Z,100892.16
2023-01-21T10:39:29.836Z,100896.44
2023-01-21T10:42:19.537Z,100894.56
2023-01-21T10:44:53.919Z,100898.00
2023-01-21T10:47:31.203Z,100902.13
2023-01-21T10:50:05.210Z,100899.38
2023-01-21T10:52:41.985Z,100902.66
2023-01-21T10:55:27.826Z,100886.44
2023-01-21T10:57:59.753Z,100893.00
2023-01-21T11:00:30.218Z,100903.13
2023-01-21T11:03:02.502Z,100895.22
2023-01-21T11:05:32.100Z,100893.47
2023-01-21T11:08:00.384Z,100887.78
2023-01-21T11:10:29.054Z,100878.72
2023-01-21T11:12:57.266Z,100873.84
2023-01-21T11:15:25.227Z,100875.72
2023-01-21T11:17:56.349Z,100873.84
2023-01-21T11:20:30.264Z,100880.47
2023-01-21T11:22:59.321Z,100886.66
2023-01-21T11:25:32.203Z,100879.63
2023-01-21T11:27:59.844Z,100874.34
2023-01-21T11:30:49.436Z,100880.81
2023-01-21T11:33:26.888Z,100886.66
2023-01-21T11:35:56.108Z,100890.22
2023-01-21T11:38:33.064Z,100885.34
2023-01-21T11:41:05.216Z,100874.47
2023-01-21T11:43:35.371Z,100876.00
2023-01-21T11:46:22.728Z,100889.97
2023-01-21T11:48:50.656Z,100886.31
2023-01-21T11:51:18.673Z,100883.91
2023-01-21T11:53:47.612Z,100894.38
2023-01-21T11:56:16.944Z,100890.13
2023-01-21T11:58:44.557Z,100883.59
2023-01-21T12:01:21.118Z,100875.34
2023-01-21T12:03:53.067Z,100882.41
2023-01-21T12:06:23.444Z,100889.22
2023-01-21T12:08:54.358Z,100884.88
2023-01-21T12:11:25.895Z,100875.53
2023-01-21T12:14:02.231Z,100878.38
2023-01-21T12:16:35.242Z,100876.59
2023-01-21T12:19:25.066Z,100877.31
2023-01-21T12:22:15.546Z,100874.41
2023-01-21T12:25:03.650Z,100869.41
2023-01-21T12:27:36.548Z,100868.63
2023-01-21T12:30:13.039Z,100871.53
2023-01-21T12:32:45.713Z,100873.59
2023-01-21T12:35:19.009Z,100868.56
2023-01-21T12:37:52.244Z,100862.53
2023-01-21T12:40:29.848Z,100863.44
2023-01-21T12:43:01.467Z,100864.59
2023-01-21T12:45:36.229Z,100868.66
2023-01-21T12:48:11.005Z,100867.66
2023-01-21T12:50:43.691Z,100869.13
2023-01-21T12:53:20.845Z,100863.56
2023-01-21T12:56:08.043Z,100869.53
2023-01-21T12:58:40.157Z,100863.56
2023-01-21T13:01:12.048Z,100865.84
2023-01-21T13:03:51.335Z,100869.84
2023-01-21T13:06:29.576Z,100871.34
2023-01-21T13:09:09.383Z,100867.53
2023-01-21T13:11:45.323Z,100865.50
2023-01-21T13:14:24.254Z,100867.53
2023-01-21T13:16:58.603Z,100869.53
2023-01-21T13:19:26.282Z,100872.81
2023-01-21T13:22:02.391Z,100871.88
2023-01-21T13:24:34.233Z,100873.88
2023-01-21T13:27:12.966Z,100878.69
2023-01-21T13:29:47.967Z,100872.38
2023-01-21T13:32:26.258Z,100880.25
2023-01-21T13:35:06.552Z,100876.47
2023-01-21T13:37:40.461Z,100877.97
2023-01-21T13:40:26.627Z,100876.47
2023-01-21T13:43:07.570Z,100875.69
2023-01-21T13:45:50.470Z,100880.97
2023-01-21T13:48:29.215Z,100875.19
2023-01-21T13:51:16.133Z,100882.59
2023-01-21T13:54:00.554Z,100883.72
2023-01-21T13:56:43.589Z,100885.22
2023-01-21T13:59:17.890Z,100892.28
2023-01-21T14:01:51.319Z,100890.97
2023-01-21T14:04:26.891Z,100888.69
2023-01-21T14:07:01.765Z,100895.16
2023-01-21T14:09:37.173Z,100892.63
2023-01-21T14:12:11.976Z,100895.19
2023-01-21T14:15:15.879Z,100897.22
2023-01-21T14:18:07.799Z,100894.97
2023-01-21T14:21:02.039Z,100902.56
2023-01-21T14:23:42.917Z,100901.03
2023-01-21T14:26:20.485Z,100908.13
2023-01-21T14:29:01.559Z,100898.75
2023-01-21T14:31:36.625Z,100896.72
2023-01-21T14:34:16.012Z,100900.28
2023-01-21T14:36:52.673Z,100906.59
2023-01-21T14:39:34.772Z,100903.31
2023-01-21T14:42:10.711Z,100914.97
2023-01-21T14:44:41.537Z,100920.31
2023-01-21T14:47:22.701Z,100918.03
2023-01-21T14:49:53.947Z,100927.53
2023-01-21T14:52:28.823Z,100929.44
2023-01-21T14:54:56.506Z,100929.22
2023-01-21T14:57:28.935Z,100931.50
2023-01-21T15:00:05.963Z,100932.25
2023-01-21T15:02:41.306Z,100937.31
2023-01-21T15:05:24.846Z,100932.00
2023-01-21T15:08:05.459Z,100939.09
2023-01-21T15:10:36.035Z,100932.25
2023-01-21T15:13:07.383Z,100928.19
2023-01-21T15:15:40.815Z,100934.03
2023-01-21T15:18:26.281Z,100928.47
2023-01-21T15:20:58.101Z,100931.13
2023-01-21T15:23:37.874Z,100928.94
2023-01-21T15:26:19.167Z,100934.78
2023-01-21T15:28:47.492Z,100935.56
2023-01-21T15:31:41.088Z,100942.66
2023-01-21T15:34:14.261Z,100942.00
2023-01-21T15:36:47.732Z,100937.56
2023-01-21T15:39:17.704Z,100942.13
2023-01-21T15:41:57.841Z,100946.31
2023-01-21T15:44:49.144Z,100945.41
2023-01-21T15:47:41.038Z,100952.78
2023-01-21T15:50:20.965Z,100949.97
2023-01-21T15:53:03.388Z,100962.91
2023-01-21T15:55:41.721Z,100954.28
2023-01-21T15:58:21.616Z,100952.91
2023-01-21T16:00:55.172Z,100957.97
2023-01-21T16:03:28.443Z,100957.84
2023-01-21T16:06:03.785Z,100968.22
2023-01-21T16:08:48.289Z,100957.84
2023-01-21T16:11:40.351Z,100965.69
2023-01-21T16:14:24.217Z,100964.81
2023-01-21T16:17:02.548Z,100965.19
2023-01-21T16:19:34.732Z,100970.88
2023-01-21T16:22:07.441Z,100958.09
2023-01-21T16:24:41.407Z,100962.53
2023-01-21T16:27:19.763Z,100965.31
2023-01-21T16:29:47.391Z,100964.44
2023-01-21T16:32:19.938Z,100970.38
2023-01-21T16:34:47.892Z,100973.56
2023-01-21T16:37:18.951Z,100969.28
2023-01-21T16:39:47.988Z,100975.06
2023-01-21T16:42:25.777Z,100976.09
2023-01-21T16:44:56.526Z,100972.81
2023-01-21T16:47:27.075Z,100979.63
2023-01-21T16:49:54.703Z,100982.94
2023-01-21T16:52:24.413Z,100984.97
2023-01-21T16:54:55.252Z,100985.34
2023-01-21T16:57:28.740Z,100990.41
2023-01-21T16:59:57.929Z,100994.19
2023-01-21T17:02:28.645Z,100999.88
2023-01-21T17:04:58.398Z,100995.97
2023-01-21T17:07:29.473Z,100991.53
2023-01-21T17:10:01.626Z,100996.34
2023-01-21T17:12:31.525Z,101000.38
2023-01-21T17:15:02.450Z,100997.13
2023-01-21T17:17:31.976Z,100992.28
2023-01-21T17:20:00.217Z,101003.94
2023-01-21T17:22:31.895Z,100994.59
2023-01-21T17:25:07.316Z,100996.84
2023-01-21T17:27:37.695Z,100997.84
2023-01-21T17:30:26.211Z,101001.91
2023-01-21T17:32:55.418Z,101013.31
2023-01-21T17:35:25.512Z,101011.78
2023-01-21T17:37:55.252Z,101009.63
2023-01-21T17:40:29.819Z,101015.84
2023-01-21T17:42:58.871Z,101008.75
2023-01-21T17:45:32.874Z,101014.69
2023-01-21T17:48:12.438Z,101014.19
2023-01-21T17:50:47.173Z,101018.75
2023-01-21T17:53:22.820Z,101025.72
2023-01-21T17:56:01.098Z,101028.25
2023-01-21T17:58:47.068Z,101023.31
2023-01-21T18:01:15.429Z,101023.94
2023-01-21T18:03:43.234Z,101024.72
2023-01-21T18:06:18.271Z,101023.16
2023-01-21T18:08:45.913Z,101018.25
2023-01-21T18:11:18.010Z,101021.16
2023-01-21T18:13:45.558Z,101017.00
2023-01-21T18:16:13.442Z,101021.78
2023-01-21T18:18:41.900Z,101018.75
2023-01-21T18:21:18.278Z,101023.94
2023-01-21T18:23:45.902Z,101019.63
2023-01-21T18:26:21.300Z,101016.84
2023-01-21T18:28:48.894Z,101016.72
2023-01-21T18:31:16.570Z,101007.84
2023-01-21T18:33:44.305Z,101004.56
2023-01-21T18:36:12.528Z,101013.03
2023-01-21T18:38:40.210Z,101009.50
2023-01-21T18:41:09.083Z,101009.38
2023-01-21T18:43:37.993Z,101008.63
2023-01-21T18:46:12.090Z,101004.31
2023-01-21T18:48:39.644Z,101005.06
2023-01-21T18:51:07.290Z,101016.09
2023-01-21T18:53:34.861Z,101010.88
2023-01-21T18:56:04.967Z,101007.59
2023-01-21T18:58:32.911Z,101010.88
2023-01-21T19:01:10.814Z,101005.97
2023-01-21T19:03:43.312Z,101013.03
2023-01-21T19:06:16.728Z,101005.06
2023-01-21T19:08:48.393Z,101001.03
2023-01-21T19:11:16.291Z,100996.09
2023-01-21T19:13:43.863Z,101006.22
2023-01-21T19:16:16.704Z,100997.13
2023-01-21T19:18:44.529Z,100996.72
2023-01-21T19:21:12.757Z,100999.66
2023-01-21T19:23:40.971Z,100997.47
2023-01-21T19:26:12.937Z,100991.50
2023-01-21T19:28:40.557Z,100988.97
2023-01-21T19:31:08.305Z,100995.84
2023-01-21T19:33:37.323Z,100999.75
2023-01-21T19:36:14.822Z,100991.41
2023-01-21T19:38:44.157Z,100988.75
2023-01-21T19:41:11.963Z,100986.22
2023-01-21T19:43:41.059Z,100995.56
2023-01-21T19:46:11.790Z,100992.13
2023-01-21T19:48:41.464Z,100991.03
2023-01-21T19:51:09.126Z,100989.69
2023-01-21T19:53:37.431Z,100989.97
2023-01-21T19:56:06.055Z,100986.81
2023-01-21T19:58:36.112Z,100993.50
2023-01-21T20:01:03.869Z,100997.06
2023-01-21T20:03:31.529Z,100994.81
2023-01-21T20:06:03.026Z,100992.03
2023-01-21T20:08:33.060Z,100998.09
2023-01-21T20:11:00.667Z,101007.97
2023-01-21T20:13:32.189Z,101000.53
2023-01-21T20:16:02.527Z,101005.69
2023-01-21T20:18:32.479Z,101005.69
2023-01-21T20:21:01.441Z,101007.75
2023-01-21T20:23:30.974Z,101011.28
2023-01-21T20:26:00.067Z,101015.19
2023-01-21T20:28:30.982Z,101006.22
2023-01-21T20:31:02.443Z,101009.63
2023-01-21T20:33:30.048Z,101016.59
2023-01-21T20:35:57.782Z,101003.44
2023-01-21T20:38:30.058Z,101000.91
2023-01-21T20:40:57.932Z,101008.13
2023-01-21T20:43:25.448Z,101004.19
2023-01-21T20:45:53.720Z,101003.69
2023-01-21T20:48:26.019Z,100999.28
2023-01-21T20:50:54.020Z,100998.13
2023-01-21T20:53:21.936Z,101004.94
2023-01-21T20:55:52.118Z,101001.41
2023-01-21T20:58:21.891Z,101008.50
2023-01-21T21:00:50.110Z,101005.22
2023-01-21T21:03:19.159Z,100996.47
2023-01-21T21:05:48.109Z,100996.34
2023-01-21T21:08:18.024Z,100994.81
2023-01-21T21:10:46.480Z,100992.53
2023-01-21T21:13:15.765Z,100999.25
2023-01-21T21:15:46.427Z,101001.66
2023-01-21T21:18:14.435Z,100994.81
2023-01-21T21:20:44.043Z,100998.13
2023-01-21T21:23:14.020Z,100998.38
2023-01-21T21:25:43.486Z,100994.69
2023-01-21T21:28:11.575Z,100994.59
2023-01-21T21:30:40.936Z,100992.06
2023-01-21T21:33:15.389Z,100984.47
2023-01-21T21:35:44.625Z,100985.47
2023-01-21T21:38:15.135Z,100991.03
2023-01-21T21:40:45.360Z,100990.53
2023-01-21T21:43:43.960Z,100990.78
2023-01-21T21:46:36.373Z,100978.34
2023-01-21T21:49:04.642Z,100982.44
2023-01-21T21:51:36.452Z,100979.13
2023-01-21T21:54:05.737Z,100979.41
2023-01-21T21:56:33.623Z,100980.41
2023-01-21T21:59:10.518Z,100978.63
2023-01-21T22:01:41.687Z,100983.44
2023-01-21T22:04:09.860Z,100984.59
2023-01-21T22:06:37.731Z,100973.81
2023-01-21T22:09:06.018Z,100976.22
2023-01-21T22:14:41.268Z,100968.75
2023-01-21T22:17:13.327Z,100968.75
2023-01-21T22:19:47.251Z,100969.00
2023-01-21T22:22:15.137Z,100967.75
2023-01-21T22:24:43.953Z,100963.94
2023-01-21T22:27:13.194Z,100965.47
2023-01-21T22:29:42.273Z,100961.41
2023-01-21T22:32:10.172Z,100962.06
2023-01-21T22:34:41.630Z,100963.84
2023-01-21T22:37:16.151Z,100953.44
2023-01-21T22:39:43.796Z,100954.97
2023-01-21T22:42:19.729Z,100951.56
2023-01-21T22:45:07.241Z,100943.81
2023-01-21T22:47:35.723Z,100941.16
2023-01-21T22:50:03.573Z,100943.09
2023-01-21T22:52:31.228Z,100939.28
2023-01-21T22:55:00.872Z,100942.94
2023-01-21T22:57:28.520Z,100926.25
2023-01-21T22:59:57.528Z,100930.28
2023-01-21T23:02:25.540Z,100935.09
2023-01-21T23:04:53.310Z,100926.47
2023-01-21T23:07:21.021Z,100930.03
2023-01-21T23:09:48.669Z,100929.28
2023-01-21T23:12:19.479Z,100923.72
2023-01-21T23:14:47.530Z,100925.94
2023-01-21T23:17:17.525Z,100919.16
2023-01-21T23:19:45.173Z,100922.88
2023-01-21T23:22:12.789Z,100917.69
2023-01-21T23:24:40.352Z,100911.25
2023-01-21T23:27:07.917Z,100907.22
2023-01-21T23:29:35.528Z,100913.78
2023-01-21T23:32:03.268Z,100903.03
2023-01-21T23:34:32.410Z,100902.28
2023-01-21T23:36:59.980Z,100900.13
2023-01-21T23:39:27.603Z,100901.28
2023-01-21T23:41:55.818Z,100893.31
2023-01-21T23:44:25.326Z,100896.34
2023-01-21T23:46:52.973Z,100895.88
2023-01-21T23:49:20.850Z,100889.66
2023-01-21T23:51:49.926Z,100896.38
2023-01-21T23:54:17.507Z,100887.91
2023-01-21T23:56:45.276Z,100880.91
2023-01-21T23:59:12.873Z,100886.63
